createdAt,value
2018-06-12T00:00:36.345Z,17.76
2018-06-12T00:03:04.424Z,17.72
2018-06-12T00:05:32.481Z,17.70
2018-06-12T00:08:00.537Z,17.60
2018-06-12T00:10:28.604Z,17.61
2018-06-12T00:12:56.668Z,17.63
2018-06-12T00:15:24.723Z,17.63
2018-06-12T00:17:52.764Z,17.61
2018-06-12T00:20:20.932Z,17.52
2018-06-12T00:22:48.977Z,17.41
2018-06-12T00:25:17.020Z,17.30
2018-06-12T00:27:45.060Z,17.20
2018-06-12T00:30:13.113Z,17.21
2018-06-12T00:32:41.169Z,17.17
2018-06-12T00:35:09.202Z,17.16
2018-06-12T00:37:37.249Z,17.18
2018-06-12T00:40:05.290Z,17.22
2018-06-12T00:42:39.871Z,17.20
2018-06-12T00:45:07.912Z,17.20
2018-06-12T00:47:35.964Z,17.20
2018-06-12T00:50:04.010Z,17.20
2018-06-12T00:52:32.064Z,17.15
2018-06-12T00:55:00.101Z,17.12
2018-06-12T00:57:28.176Z,17.14
2018-06-12T00:59:56.236Z,17.16
2018-06-12T01:02:24.284Z,17.21
2018-06-12T01:04:52.336Z,17.27
2018-06-12T01:07:20.391Z,17.29
2018-06-12T01:09:48.452Z,17.27
2018-06-12T01:12:16.491Z,17.24
2018-06-12T01:14:44.519Z,17.24
2018-06-12T01:17:12.675Z,17.25
2018-06-12T01:19:40.719Z,17.28
2018-06-12T01:22:08.771Z,17.28
2018-06-12T01:24:36.812Z,17.21
2018-06-12T01:27:04.862Z,17.21
2018-06-12T01:29:33.001Z,17.16
2018-06-12T01:32:01.044Z,17.16
2018-06-12T01:34:29.068Z,17.14
2018-06-12T01:36:57.116Z,17.13
2018-06-12T01:39:25.160Z,17.10
2018-06-12T01:41:53.216Z,17.14
2018-06-12T01:44:21.249Z,17.16
2018-06-12T01:46:49.285Z,17.15
2018-06-12T01:49:17.329Z,17.17
2018-06-12T01:51:45.372Z,17.20
2018-06-12T01:54:13.416Z,17.20
2018-06-12T01:56:41.452Z,17.16
2018-06-12T01:59:09.499Z,17.11
2018-06-12T02:01:37.548Z,17.11
2018-06-12T02:04:05.648Z,17.13
2018-06-12T02:06:33.693Z,17.18
2018-06-12T02:09:02.774Z,17.19
2018-06-12T02:11:30.808Z,17.17
2018-06-12T02:13:58.840Z,17.17
2018-06-12T02:16:26.880Z,17.18
2018-06-12T02:18:54.922Z,17.14
2018-06-12T02:21:22.964Z,17.11
2018-06-12T02:23:51.016Z,17.10
2018-06-12T02:26:19.068Z,17.10
2018-06-12T02:28:47.112Z,17.13
2018-06-12T02:31:15.180Z,17.10
2018-06-12T02:33:43.230Z,17.03
2018-06-12T02:36:11.282Z,17.02
2018-06-12T02:38:39.332Z,17.02
2018-06-12T02:41:07.425Z,17.00
2018-06-12T02:43:35.483Z,16.87
2018-06-12T02:46:03.529Z,16.83
2018-06-12T02:48:31.592Z,16.84
2018-06-12T02:50:59.660Z,16.87
2018-06-12T02:53:27.709Z,16.89
2018-06-12T02:55:55.745Z,16.91
2018-06-12T02:58:23.805Z,16.96
2018-06-12T03:00:51.865Z,17.00
2018-06-12T03:03:19.910Z,17.03
2018-06-12T03:05:47.947Z,17.07
2018-06-12T03:08:16.013Z,17.08
2018-06-12T03:10:44.049Z,17.05
2018-06-12T03:13:12.108Z,17.06
2018-06-12T03:15:40.168Z,17.00
2018-06-12T03:18:08.217Z,16.94
2018-06-12T03:20:44.727Z,16.95
2018-06-12T03:23:12.804Z,16.93
2018-06-12T03:25:40.855Z,16.95
2018-06-12T03:28:08.895Z,16.97
2018-06-12T03:30:36.944Z,16.99
2018-06-12T03:33:05.001Z,16.98
2018-06-12T03:35:33.048Z,16.98
2018-06-12T03:38:01.125Z,16.98
2018-06-12T03:40:29.177Z,17.05
2018-06-12T03:42:57.234Z,17.10
2018-06-12T03:45:25.268Z,17.12
2018-06-12T03:47:53.328Z,17.13
2018-06-12T03:50:21.368Z,17.14
2018-06-12T03:52:49.410Z,17.14
2018-06-12T03:55:17.445Z,17.13
2018-06-12T03:57:45.501Z,17.10
2018-06-12T04:00:13.528Z,17.08
2018-06-12T04:02:41.579Z,17.00
2018-06-12T04:05:09.623Z,16.94
2018-06-12T04:07:37.745Z,16.92
2018-06-12T04:10:05.720Z,16.91
2018-06-12T04:12:33.780Z,16.91
2018-06-12T04:15:01.839Z,16.91
2018-06-12T04:17:29.869Z,16.95
2018-06-12T04:19:57.896Z,16.95
2018-06-12T04:22:25.939Z,16.92
2018-06-12T04:24:53.999Z,16.92
2018-06-12T04:27:22.046Z,16.98
2018-06-12T04:29:50.091Z,17.02
2018-06-12T04:32:18.146Z,17.08
2018-06-12T04:34:46.180Z,17.11
2018-06-12T04:37:14.237Z,17.14
2018-06-12T04:39:42.280Z,17.16
2018-06-12T04:42:10.328Z,17.16
2018-06-12T04:44:38.376Z,17.16
2018-06-12T04:47:06.424Z,17.18
2018-06-12T04:49:34.472Z,17.18
2018-06-12T04:52:02.527Z,17.14
2018-06-12T04:54:30.573Z,17.16
2018-06-12T04:56:58.638Z,17.19
2018-06-12T04:59:26.670Z,17.19
2018-06-12T05:01:57.580Z,17.24
2018-06-12T05:04:25.648Z,17.29
2018-06-12T05:06:54.033Z,17.28
2018-06-12T05:09:22.180Z,17.32
2018-06-12T05:11:50.248Z,17.38
2018-06-12T05:14:18.324Z,17.44
2018-06-12T05:16:46.392Z,17.39
2018-06-12T05:19:14.448Z,17.34
2018-06-12T05:21:42.536Z,17.38
2018-06-12T05:24:10.600Z,17.38
2018-06-12T05:26:40.533Z,17.37
2018-06-12T05:29:08.594Z,17.34
2018-06-12T05:31:36.693Z,17.29
2018-06-12T05:34:04.931Z,17.28
2018-06-12T05:36:33.012Z,17.29
2018-06-12T05:39:01.056Z,17.30
2018-06-12T05:41:29.108Z,17.36
2018-06-12T05:43:57.165Z,17.40
2018-06-12T05:46:25.200Z,17.42
2018-06-12T05:48:53.262Z,17.44
2018-06-12T05:51:21.303Z,17.47
2018-06-12T05:53:49.372Z,17.53
2018-06-12T05:56:17.420Z,17.58
2018-06-12T05:58:45.473Z,17.68
2018-06-12T06:01:13.535Z,17.79
2018-06-12T06:03:41.573Z,17.91
2018-06-12T06:06:09.621Z,17.98
2018-06-12T06:08:37.687Z,17.98
2018-06-12T06:11:05.716Z,17.99
2018-06-12T06:13:33.764Z,17.98
2018-06-12T06:16:01.812Z,18.04
2018-06-12T06:18:29.877Z,18.09
2018-06-12T06:20:57.937Z,18.17
2018-06-12T06:23:25.988Z,18.27
2018-06-12T06:25:54.032Z,18.29
2018-06-12T06:28:22.069Z,18.36
2018-06-12T06:30:50.117Z,18.39
2018-06-12T06:33:18.172Z,18.42
2018-06-12T06:35:46.216Z,18.47
2018-06-12T06:38:14.263Z,18.46
2018-06-12T06:40:42.290Z,18.45
2018-06-12T06:43:10.330Z,18.42
2018-06-12T06:45:38.370Z,18.39
2018-06-12T06:48:06.412Z,18.42
2018-06-12T06:50:34.460Z,18.48
2018-06-12T06:53:02.506Z,18.52
2018-06-12T06:55:30.543Z,18.56
2018-06-12T06:57:58.588Z,18.48
2018-06-12T07:00:26.632Z,18.43
2018-06-12T07:02:54.719Z,18.42
2018-06-12T07:05:22.772Z,18.44
2018-06-12T07:07:50.837Z,18.43
2018-06-12T07:10:18.880Z,18.46
2018-06-12T07:12:46.932Z,18.48
2018-06-12T07:15:14.963Z,18.39
2018-06-12T07:17:43.013Z,18.24
2018-06-12T07:20:11.064Z,18.25
2018-06-12T07:22:39.124Z,18.35
2018-06-12T07:25:07.157Z,18.46
2018-06-12T07:27:35.202Z,18.49
2018-06-12T07:30:03.292Z,18.50
2018-06-12T07:32:31.334Z,18.49
2018-06-12T07:34:59.368Z,18.43
2018-06-12T07:37:27.479Z,18.36
2018-06-12T07:39:55.510Z,18.37
2018-06-12T07:42:23.553Z,18.42
2018-06-12T07:44:51.599Z,18.44
2018-06-12T07:47:19.668Z,18.44
2018-06-12T07:49:47.703Z,18.42
2018-06-12T07:52:15.785Z,18.38
2018-06-12T07:54:43.848Z,18.42
2018-06-12T07:57:11.886Z,18.39
2018-06-12T07:59:39.942Z,18.45
2018-06-12T08:02:07.988Z,18.52
2018-06-12T08:04:36.039Z,18.49
2018-06-12T08:07:04.146Z,18.43
2018-06-12T08:09:32.150Z,18.45
2018-06-12T08:12:00.201Z,18.48
2018-06-12T08:14:28.259Z,18.55
2018-06-12T08:16:56.304Z,18.61
2018-06-12T08:19:24.340Z,18.55
2018-06-12T08:21:52.370Z,18.56
2018-06-12T08:24:20.424Z,18.57
2018-06-12T08:26:48.477Z,18.68
2018-06-12T08:29:16.548Z,18.73
2018-06-12T08:31:44.579Z,18.81
2018-06-12T08:34:12.624Z,18.81
2018-06-12T08:36:40.657Z,18.76
2018-06-12T08:39:08.701Z,18.79
2018-06-12T08:41:36.765Z,18.78
2018-06-12T08:44:04.803Z,18.81
2018-06-12T08:46:32.849Z,18.82
2018-06-12T08:49:00.887Z,18.91
2018-06-12T08:51:28.922Z,18.97
2018-06-12T08:53:56.972Z,18.87
2018-06-12T08:56:25.012Z,18.81
2018-06-12T08:58:53.117Z,18.74
2018-06-12T09:01:21.178Z,18.69
2018-06-12T09:03:49.223Z,18.70
2018-06-12T09:06:17.277Z,18.65
2018-06-12T09:08:45.343Z,18.66
2018-06-12T09:11:13.381Z,18.67
2018-06-12T09:13:41.424Z,18.68
2018-06-12T09:16:09.473Z,18.69
2018-06-12T09:18:37.508Z,18.62
2018-06-12T09:21:05.552Z,18.55
2018-06-12T09:23:33.604Z,18.44
2018-06-12T09:26:01.664Z,18.38
2018-06-12T09:28:29.716Z,18.35
2018-06-12T09:30:57.759Z,18.38
2018-06-12T09:33:25.793Z,18.44
2018-06-12T09:35:58.009Z,18.48
2018-06-12T09:38:26.029Z,18.50
2018-06-12T09:40:54.059Z,18.67
2018-06-12T09:43:22.084Z,18.70
2018-06-12T09:45:50.136Z,18.76
2018-06-12T09:48:18.172Z,18.89
2018-06-12T09:50:46.282Z,19.08
2018-06-12T09:53:14.313Z,19.19
2018-06-12T09:55:42.355Z,19.47
2018-06-12T09:58:10.396Z,19.71
2018-06-12T10:00:43.904Z,19.92
2018-06-12T10:03:11.937Z,19.93
2018-06-12T10:05:39.980Z,19.96
2018-06-12T10:08:08.033Z,20.01
2018-06-12T10:10:36.073Z,20.03
2018-06-12T10:13:04.105Z,19.97
2018-06-12T10:15:32.181Z,19.86
2018-06-12T10:18:00.231Z,19.73
2018-06-12T10:20:28.284Z,19.74
2018-06-12T10:22:56.321Z,19.73
2018-06-12T10:25:24.376Z,19.73
2018-06-12T10:27:52.405Z,19.69
2018-06-12T10:30:20.446Z,19.74
2018-06-12T10:32:48.509Z,19.71
2018-06-12T10:35:16.552Z,19.73
2018-06-12T10:37:44.585Z,19.72
2018-06-12T10:40:12.624Z,19.71
2018-06-12T10:42:40.680Z,19.76
2018-06-12T10:45:08.729Z,19.90
2018-06-12T10:47:36.760Z,20.15
2018-06-12T10:50:04.862Z,20.56
2018-06-12T10:52:32.824Z,20.95
2018-06-12T10:55:00.874Z,21.30
2018-06-12T10:57:28.907Z,21.70
2018-06-12T10:59:56.960Z,22.01
2018-06-12T11:02:25.105Z,22.03
2018-06-12T11:04:53.188Z,21.97
2018-06-12T11:07:21.229Z,21.83
2018-06-12T11:09:49.288Z,21.70
2018-06-12T11:12:17.374Z,21.57
2018-06-12T11:14:45.432Z,21.22
2018-06-12T11:17:13.494Z,21.02
2018-06-12T11:19:41.551Z,20.86
2018-06-12T11:22:09.612Z,20.74
2018-06-12T11:24:37.657Z,20.66
2018-06-12T11:27:05.748Z,20.76
2018-06-12T11:29:33.787Z,20.88
2018-06-12T11:32:01.829Z,20.90
2018-06-12T11:34:29.883Z,20.85
2018-06-12T11:36:57.950Z,20.77
2018-06-12T11:39:26.025Z,20.69
2018-06-12T11:41:54.132Z,20.59
2018-06-12T11:44:22.191Z,20.45
2018-06-12T11:46:50.239Z,20.44
2018-06-12T11:49:18.344Z,20.44
2018-06-12T11:51:46.495Z,20.53
2018-06-12T11:54:14.838Z,20.60
2018-06-12T11:56:43.005Z,20.52
2018-06-12T11:59:11.172Z,20.42
2018-06-12T12:01:39.411Z,20.41
2018-06-12T12:04:07.476Z,20.40
2018-06-12T12:06:35.595Z,20.40
2018-06-12T12:09:04.372Z,20.38
2018-06-12T12:11:32.639Z,20.38
2018-06-12T12:14:00.852Z,20.29
2018-06-12T12:16:29.035Z,20.20
2018-06-12T12:18:57.241Z,20.13
2018-06-12T12:23:59.853Z,20.13
2018-06-12T12:26:28.073Z,20.13
2018-06-12T12:28:56.263Z,20.13
2018-06-12T12:31:24.409Z,20.13
2018-06-12T12:33:52.688Z,20.14
2018-06-12T12:36:20.954Z,20.29
2018-06-12T12:38:49.158Z,20.39
2018-06-12T12:41:17.437Z,20.46
2018-06-12T12:43:45.808Z,20.60
2018-06-12T12:46:14.082Z,20.76
2018-06-12T12:48:42.329Z,20.96
2018-06-12T12:51:10.566Z,21.19
2018-06-12T12:53:38.622Z,21.12
2018-06-12T12:56:06.672Z,20.99
2018-06-12T12:58:34.758Z,21.06
2018-06-12T13:01:02.812Z,21.18
2018-06-12T13:03:30.989Z,21.13
2018-06-12T13:05:59.032Z,21.04
2018-06-12T13:08:27.094Z,20.87
2018-06-12T13:10:55.364Z,20.74
2018-06-12T13:13:23.408Z,20.61
2018-06-12T13:15:51.461Z,20.52
2018-06-12T13:18:19.521Z,20.38
2018-06-12T13:20:47.701Z,20.11
2018-06-12T13:23:15.765Z,20.05
2018-06-12T13:25:43.828Z,19.98
2018-06-12T13:28:11.860Z,19.95
2018-06-12T13:30:39.965Z,20.00
2018-06-12T13:33:08.208Z,19.93
2018-06-12T13:35:36.245Z,19.86
2018-06-12T13:38:04.303Z,19.82
2018-06-12T13:40:32.349Z,19.84
2018-06-12T13:43:00.409Z,19.83
2018-06-12T13:45:28.450Z,19.90
2018-06-12T13:47:56.521Z,19.92
2018-06-12T13:50:24.572Z,20.02
2018-06-12T13:52:52.619Z,20.25
2018-06-12T13:55:20.664Z,20.37
2018-06-12T13:57:48.704Z,20.43
2018-06-12T14:00:16.764Z,20.49
2018-06-12T14:02:44.817Z,20.59
2018-06-12T14:05:12.855Z,20.72
2018-06-12T14:07:40.916Z,20.67
2018-06-12T14:10:08.948Z,20.58
2018-06-12T14:12:37.014Z,20.41
2018-06-12T14:15:05.121Z,20.36
2018-06-12T14:17:33.173Z,20.29
2018-06-12T14:20:01.222Z,20.20
2018-06-12T14:22:29.284Z,20.06
2018-06-12T14:24:57.340Z,19.87
2018-06-12T14:27:25.392Z,19.76
2018-06-12T14:29:53.456Z,19.76
2018-06-12T14:32:21.512Z,19.84
2018-06-12T14:34:49.579Z,19.90
2018-06-12T14:37:17.611Z,19.82
2018-06-12T14:39:45.660Z,19.86
2018-06-12T14:42:13.707Z,19.79
2018-06-12T14:44:41.747Z,19.64
2018-06-12T14:47:09.807Z,19.58
2018-06-12T14:49:37.855Z,19.57
2018-06-12T14:52:05.932Z,19.59
2018-06-12T14:54:33.978Z,19.59
2018-06-12T14:57:02.010Z,19.62
2018-06-12T14:59:30.052Z,19.68
2018-06-12T15:01:58.113Z,19.66
2018-06-12T15:04:26.152Z,19.67
2018-06-12T15:06:54.215Z,19.68
2018-06-12T15:09:22.247Z,19.69
2018-06-12T15:11:50.307Z,19.73
2018-06-12T15:14:18.340Z,19.77
2018-06-12T15:16:46.387Z,19.74
2018-06-12T15:19:14.474Z,19.70
2018-06-12T15:21:42.527Z,19.77
2018-06-12T15:24:10.577Z,19.77
2018-06-12T15:26:38.625Z,19.69
2018-06-12T15:29:06.728Z,19.70
2018-06-12T15:31:34.773Z,19.75
2018-06-12T15:34:02.821Z,19.70
2018-06-12T15:36:30.874Z,19.74
2018-06-12T15:38:58.923Z,19.71
2018-06-12T15:41:26.977Z,19.66
2018-06-12T15:43:55.017Z,19.68
2018-06-12T15:46:23.052Z,19.60
2018-06-12T15:48:51.175Z,19.55
2018-06-12T15:51:19.240Z,19.51
2018-06-12T15:53:47.280Z,19.52
2018-06-12T15:56:15.319Z,19.49
2018-06-12T15:58:43.371Z,19.47
2018-06-12T16:01:11.397Z,19.47
2018-06-12T16:03:39.454Z,19.46
2018-06-12T16:06:07.529Z,19.47
2018-06-12T16:08:35.564Z,19.49
2018-06-12T16:11:03.606Z,19.48
2018-06-12T16:13:31.683Z,19.40
2018-06-12T16:15:59.718Z,19.43
2018-06-12T16:18:27.774Z,19.43
2018-06-12T16:20:55.819Z,19.34
2018-06-12T16:23:23.867Z,19.31
2018-06-12T16:25:51.927Z,19.19
2018-06-12T16:28:19.973Z,19.06
2018-06-12T16:30:48.034Z,19.02
2018-06-12T16:33:16.093Z,19.06
2018-06-12T16:35:44.191Z,19.07
2018-06-12T16:38:12.225Z,19.23
2018-06-12T16:40:40.371Z,19.41
2018-06-12T16:43:08.412Z,19.62
2018-06-12T16:45:36.457Z,19.63
2018-06-12T16:48:04.528Z,19.74
2018-06-12T16:50:32.572Z,19.87
2018-06-12T16:53:00.710Z,19.94
2018-06-12T16:55:28.948Z,19.86
2018-06-12T16:57:56.987Z,19.65
2018-06-12T17:00:25.025Z,19.50
2018-06-12T17:02:53.061Z,19.38
2018-06-12T17:05:21.121Z,19.22
2018-06-12T17:07:49.163Z,19.14
2018-06-12T17:10:17.216Z,19.01
2018-06-12T17:12:45.268Z,18.91
2018-06-12T17:15:13.337Z,18.91
2018-06-12T17:17:41.376Z,18.85
2018-06-12T17:20:09.416Z,18.78
2018-06-12T17:22:37.484Z,18.75
2018-06-12T17:25:05.623Z,18.72
2018-06-12T17:27:33.693Z,18.63
2018-06-12T17:30:01.754Z,18.54
2018-06-12T17:32:29.825Z,18.47
2018-06-12T17:34:57.867Z,18.37
2018-06-12T17:37:25.911Z,18.31
2018-06-12T17:39:53.971Z,18.24
2018-06-12T17:42:22.029Z,18.18
2018-06-12T17:44:50.077Z,18.17
2018-06-12T17:47:18.140Z,18.13
2018-06-12T17:49:46.209Z,18.05
2018-06-12T17:52:14.353Z,18.07
2018-06-12T17:54:42.421Z,18.14
2018-06-12T17:57:10.539Z,18.19
2018-06-12T17:59:38.588Z,18.26
2018-06-12T18:02:06.681Z,18.31
2018-06-12T18:04:34.739Z,18.33
2018-06-12T18:07:02.800Z,18.35
2018-06-12T18:09:30.935Z,18.27
2018-06-12T18:11:58.978Z,18.21
2018-06-12T18:14:27.052Z,18.20
2018-06-12T18:16:55.126Z,18.12
2018-06-12T18:19:23.190Z,18.08
2018-06-12T18:21:51.240Z,18.08
2018-06-12T18:24:19.295Z,18.00
2018-06-12T18:26:47.344Z,17.93
2018-06-12T18:29:15.392Z,17.96
2018-06-12T18:31:43.433Z,17.96
2018-06-12T18:34:11.804Z,18.03
2018-06-12T18:36:39.849Z,18.10
2018-06-12T18:39:08.533Z,18.10
2018-06-12T18:41:36.569Z,18.17
2018-06-12T18:44:04.625Z,18.22
2018-06-12T18:46:32.663Z,18.29
2018-06-12T18:49:00.701Z,18.34
2018-06-12T18:51:28.747Z,18.37
2018-06-12T18:53:56.795Z,18.35
2018-06-12T18:56:24.838Z,18.31
2018-06-12T18:58:52.872Z,18.22
2018-06-12T19:01:20.929Z,18.17
2018-06-12T19:03:48.985Z,18.07
2018-06-12T19:06:17.177Z,18.01
2018-06-12T19:08:45.931Z,18.02
2018-06-12T19:11:13.968Z,17.95
2018-06-12T19:13:42.105Z,17.89
2018-06-12T19:16:10.176Z,17.88
2018-06-12T19:18:38.235Z,17.82
2018-06-12T19:21:06.272Z,17.81
2018-06-12T19:23:34.348Z,17.76
2018-06-12T19:26:02.388Z,17.72
2018-06-12T19:28:30.445Z,17.62
2018-06-12T19:30:58.489Z,17.63
2018-06-12T19:33:26.541Z,17.67
2018-06-12T19:35:54.593Z,17.69
2018-06-12T19:38:22.649Z,17.63
2018-06-12T19:40:50.706Z,17.58
2018-06-12T19:43:18.761Z,17.57
2018-06-12T19:45:46.821Z,17.54
2018-06-12T19:48:14.877Z,17.61
2018-06-12T19:50:42.913Z,17.69
2018-06-12T19:53:10.964Z,17.73
2018-06-12T19:55:39.064Z,17.76
2018-06-12T19:58:07.115Z,17.75
2018-06-12T20:00:35.192Z,17.75
2018-06-12T20:03:03.237Z,17.79
2018-06-12T20:05:31.276Z,17.82
2018-06-12T20:07:59.309Z,17.78
2018-06-12T20:10:27.366Z,17.75
2018-06-12T20:12:55.413Z,17.72
2018-06-12T20:15:23.456Z,17.68
2018-06-12T20:17:51.496Z,17.68
2018-06-12T20:20:20.353Z,17.66
2018-06-12T20:22:48.399Z,17.69
2018-06-12T20:25:16.511Z,17.71
2018-06-12T20:27:44.559Z,17.72
2018-06-12T20:30:12.619Z,17.73
2018-06-12T20:32:40.652Z,17.65
2018-06-12T20:35:08.715Z,17.65
2018-06-12T20:37:36.752Z,17.61
2018-06-12T20:40:04.859Z,17.57
2018-06-12T20:42:32.871Z,17.54
2018-06-12T20:45:00.913Z,17.54
2018-06-12T20:47:28.940Z,17.54
2018-06-12T20:49:56.995Z,17.55
2018-06-12T20:52:25.025Z,17.45
2018-06-12T20:54:53.060Z,17.42
2018-06-12T20:57:21.102Z,17.38
2018-06-12T20:59:49.157Z,17.38
2018-06-12T21:02:17.193Z,17.33
2018-06-12T21:04:45.238Z,17.31
2018-06-12T21:07:13.361Z,17.29
2018-06-12T21:09:41.324Z,17.22
2018-06-12T21:12:09.404Z,17.18
2018-06-12T21:14:37.431Z,17.12
2018-06-12T21:17:05.472Z,17.03
2018-06-12T21:19:33.544Z,16.99
2018-06-12T21:22:01.601Z,16.98
2018-06-12T21:24:29.678Z,16.92
2018-06-12T21:26:57.737Z,16.78
2018-06-12T21:29:25.789Z,16.70
2018-06-12T21:31:53.880Z,16.66
2018-06-12T21:34:21.904Z,16.61
2018-06-12T21:36:49.965Z,16.65
2018-06-12T21:39:18.035Z,16.68
2018-06-12T21:41:46.083Z,16.67
2018-06-12T21:44:14.140Z,16.69
2018-06-12T21:46:42.196Z,16.70
2018-06-12T21:49:10.229Z,16.68
2018-06-12T21:51:38.276Z,16.70
2018-06-12T21:54:06.331Z,16.70
2018-06-12T21:56:34.405Z,16.67
2018-06-12T21:59:02.414Z,16.69
2018-06-12T22:01:30.468Z,16.68
2018-06-12T22:03:58.506Z,16.65
2018-06-12T22:06:26.573Z,16.57
2018-06-12T22:08:54.619Z,16.50
2018-06-12T22:11:22.675Z,16.44
2018-06-12T22:13:50.711Z,16.45
2018-06-12T22:16:22.361Z,16.47
2018-06-12T22:18:50.996Z,16.42
2018-06-12T22:21:19.591Z,16.41
2018-06-12T22:23:47.788Z,16.41
2018-06-12T22:26:15.835Z,16.39
2018-06-12T22:28:43.878Z,16.37
2018-06-12T22:31:11.936Z,16.35
2018-06-12T22:33:39.984Z,16.32
2018-06-12T22:36:08.032Z,16.31
2018-06-12T22:38:36.081Z,16.19
2018-06-12T22:41:04.120Z,16.10
2018-06-12T22:43:32.165Z,16.03
2018-06-12T22:46:00.199Z,16.01
2018-06-12T22:48:28.246Z,15.91
2018-06-12T22:50:56.281Z,15.82
2018-06-12T22:53:24.335Z,15.78
2018-06-12T22:55:52.380Z,15.73
2018-06-12T22:58:20.429Z,15.67
2018-06-12T23:00:48.465Z,15.62
2018-06-12T23:03:16.504Z,15.56
2018-06-12T23:05:44.546Z,15.52
2018-06-12T23:08:12.597Z,15.55
2018-06-12T23:10:40.648Z,15.55
2018-06-12T23:13:08.701Z,15.56
2018-06-12T23:15:36.768Z,15.60
2018-06-12T23:18:04.820Z,15.62
2018-06-12T23:20:45.788Z,15.66
2018-06-12T23:23:13.834Z,15.69
2018-06-12T23:25:41.880Z,15.69
2018-06-12T23:28:09.932Z,15.72
2018-06-12T23:30:37.965Z,15.74
2018-06-12T23:33:06.021Z,15.78
2018-06-12T23:35:34.064Z,15.76
2018-06-12T23:38:02.105Z,15.76
2018-06-12T23:40:30.142Z,15.77
2018-06-12T23:42:58.201Z,15.72
2018-06-12T23:45:26.244Z,15.72
2018-06-12T23:47:54.327Z,15.73
2018-06-12T23:50:22.377Z,15.74
2018-06-12T23:52:50.431Z,15.77
2018-06-12T23:55:18.475Z,15.73
2018-06-12T23:57:46.520Z,15.71
